createdAt,value
2023-05-07T00:00:11.679Z,4.00
2023-05-07T00:03:00.826Z,2.60
2023-05-07T00:05:29.786Z,5.60
2023-05-07T00:07:59.763Z,3.50
2023-05-07T00:10:28.646Z,3.80
2023-05-07T00:12:57.403Z,1.80
2023-05-07T00:15:26.117Z,3.80
2023-05-07T00:17:55.726Z,6.90
2023-05-07T00:20:24.877Z,2.50
2023-05-07T00:22:53.917Z,4.00
2023-05-07T00:25:22.809Z,4.40
2023-05-07T00:27:51.450Z,4.80
2023-05-07T00:30:20.475Z,3.20
2023-05-07T00:32:51.369Z,4.20
2023-05-07T00:35:20.497Z,5.90
2023-05-07T00:37:49.433Z,4.40
2023-05-07T00:40:18.252Z,4.60
2023-05-07T00:42:47.491Z,8.30
2023-05-07T00:45:17.481Z,4.20
2023-05-07T00:47:46.374Z,3.20
2023-05-07T00:50:15.011Z,4.50
2023-05-07T00:52:44.110Z,2.60
2023-05-07T00:55:14.942Z,2.80
2023-05-07T00:57:43.609Z,2.80
2023-05-07T01:00:15.314Z,2.20
2023-05-07T01:02:45.210Z,3.20
2023-05-07T01:05:16.579Z,4.80
2023-05-07T01:07:46.097Z,6.70
2023-05-07T01:10:14.954Z,3.30
2023-05-07T01:12:43.819Z,2.60
2023-05-07T01:15:12.731Z,3.50
2023-05-07T01:17:43.455Z,2.50
2023-05-07T01:20:13.344Z,3.10
2023-05-07T01:22:42.499Z,1.70
2023-05-07T01:25:11.445Z,3.90
2023-05-07T01:27:40.031Z,1.40
2023-05-07T01:30:10.606Z,9.10
2023-05-07T01:32:44.800Z,1.60
2023-05-07T01:37:41.949Z,2.20
2023-05-07T01:40:12.277Z,4.60
2023-05-07T01:42:41.629Z,2.90
2023-05-07T01:45:11.753Z,2.00
2023-05-07T01:47:40.885Z,5.20
2023-05-07T01:50:10.898Z,5.40
2023-05-07T01:52:40.350Z,2.50
2023-05-07T01:55:09.967Z,1.70
2023-05-07T01:57:38.584Z,4.10
2023-05-07T02:00:09.684Z,3.00
2023-05-07T02:02:38.956Z,2.30
2023-05-07T02:05:09.353Z,3.40
2023-05-07T02:07:37.740Z,3.40
2023-05-07T02:10:09.110Z,3.20
2023-05-07T02:12:38.461Z,6.70
2023-05-07T02:15:08.713Z,7.70
2023-05-07T02:17:39.993Z,2.60
2023-05-07T02:20:13.663Z,3.60
2023-05-07T02:22:42.321Z,2.70
2023-05-07T02:25:11.026Z,2.60
2023-05-07T02:27:39.433Z,2.20
2023-05-07T02:30:10.304Z,1.80
2023-05-07T02:32:40.233Z,2.70
2023-05-07T02:35:09.542Z,2.10
2023-05-07T02:37:38.030Z,3.50
2023-05-07T02:40:10.107Z,2.00
2023-05-07T02:42:39.089Z,4.10
2023-05-07T02:45:10.305Z,1.60
2023-05-07T02:47:38.813Z,3.30
2023-05-07T02:50:09.528Z,1.60
2023-05-07T02:52:38.306Z,2.70
2023-05-07T02:55:09.648Z,2.40
2023-05-07T02:57:38.518Z,3.40
2023-05-07T03:00:15.262Z,1.50
2023-05-07T03:02:44.121Z,2.80
2023-05-07T03:05:13.893Z,1.20
2023-05-07T03:07:45.749Z,2.50
2023-05-07T03:10:14.536Z,2.10
2023-05-07T03:12:43.335Z,2.70
2023-05-07T03:15:13.103Z,2.00
2023-05-07T03:17:41.614Z,2.50
2023-05-07T03:20:12.372Z,1.90
2023-05-07T03:22:41.197Z,1.40
2023-05-07T03:25:11.080Z,2.50
2023-05-07T03:27:40.103Z,2.80
2023-05-07T03:30:11.715Z,1.70
2023-05-07T03:32:40.448Z,3.00
2023-05-07T03:35:10.324Z,3.20
2023-05-07T03:37:39.428Z,1.80
2023-05-07T03:40:10.917Z,2.50
2023-05-07T03:42:40.067Z,4.90
2023-05-07T03:45:10.427Z,1.90
2023-05-07T03:47:38.932Z,3.60
2023-05-07T03:50:08.665Z,2.40
2023-05-07T03:52:38.426Z,2.20
2023-05-07T03:55:08.195Z,2.70
2023-05-07T03:57:36.930Z,3.30
2023-05-07T04:00:08.027Z,4.40
2023-05-07T04:02:36.802Z,1.10
2023-05-07T04:05:06.250Z,4.00
2023-05-07T04:07:34.721Z,1.50
2023-05-07T04:10:03.532Z,1.20
2023-05-07T04:12:31.980Z,3.90
2023-05-07T04:15:02.906Z,1.80
2023-05-07T04:17:31.570Z,1.20
2023-05-07T04:20:00.041Z,3.70
2023-05-07T04:22:28.691Z,2.40
2023-05-07T04:24:57.299Z,2.00
2023-05-07T04:27:26.904Z,2.60
2023-05-07T04:29:56.643Z,2.20
2023-05-07T04:32:26.058Z,4.40
2023-05-07T04:34:54.484Z,2.70
2023-05-07T04:37:22.829Z,1.70
2023-05-07T04:39:51.268Z,2.10
2023-05-07T04:42:20.005Z,2.30
2023-05-07T04:44:48.402Z,1.80
2023-05-07T04:47:17.321Z,1.60
2023-05-07T04:49:45.760Z,1.60
2023-05-07T04:52:14.195Z,3.70
2023-05-07T04:54:42.716Z,3.80
2023-05-07T04:57:11.232Z,3.90
2023-05-07T04:59:39.648Z,5.80
2023-05-07T05:02:08.018Z,3.10
2023-05-07T05:04:37.306Z,1.80
2023-05-07T05:07:05.749Z,0.80
2023-05-07T05:09:34.263Z,2.40
2023-05-07T05:12:02.773Z,1.40
2023-05-07T05:14:32.055Z,3.10
2023-05-07T05:17:00.771Z,2.60
2023-05-07T05:19:29.275Z,1.60
2023-05-07T05:21:57.856Z,2.90
2023-05-07T05:24:26.321Z,1.10
2023-05-07T05:26:55.668Z,1.40
2023-05-07T05:29:24.429Z,2.50
2023-05-07T05:31:52.953Z,3.10
2023-05-07T05:34:22.260Z,2.30
2023-05-07T05:36:51.208Z,2.70
2023-05-07T05:39:20.143Z,6.60
2023-05-07T05:41:48.736Z,2.10
2023-05-07T05:44:17.489Z,2.90
2023-05-07T05:46:46.048Z,0.70
2023-05-07T05:49:14.715Z,2.20
2023-05-07T05:51:44.033Z,1.40
2023-05-07T05:54:12.810Z,1.40
2023-05-07T05:56:42.846Z,1.70
2023-05-07T05:59:11.711Z,2.40
2023-05-07T06:01:40.568Z,1.60
2023-05-07T06:04:09.046Z,3.80
2023-05-07T06:06:37.797Z,5.10
2023-05-07T06:09:06.367Z,1.20
2023-05-07T06:11:34.874Z,0.40
2023-05-07T06:14:03.337Z,2.10
2023-05-07T06:16:31.949Z,1.30
2023-05-07T06:19:00.831Z,4.00
2023-05-07T06:21:31.456Z,1.40
2023-05-07T06:24:00.133Z,1.70
2023-05-07T06:26:28.569Z,1.80
2023-05-07T06:28:57.040Z,1.40
2023-05-07T06:31:32.032Z,2.60
2023-05-07T06:34:00.456Z,3.30
2023-05-07T06:36:28.903Z,1.50
2023-05-07T06:38:57.288Z,1.90
2023-05-07T06:41:26.361Z,2.10
2023-05-07T06:43:55.150Z,5.60
2023-05-07T06:46:23.849Z,2.00
2023-05-07T06:48:53.108Z,2.80
2023-05-07T06:51:24.156Z,1.30
2023-05-07T06:53:52.553Z,1.90
2023-05-07T06:56:21.513Z,6.00
2023-05-07T06:58:50.497Z,2.60
2023-05-07T07:01:19.504Z,4.30
2023-05-07T07:03:48.007Z,2.40
2023-05-07T07:06:16.952Z,3.70
2023-05-07T07:08:47.400Z,2.60
2023-05-07T07:11:16.107Z,2.40
2023-05-07T07:13:45.019Z,4.00
2023-05-07T07:16:16.364Z,3.10
2023-05-07T07:18:45.436Z,2.50
2023-05-07T07:21:13.849Z,2.10
2023-05-07T07:23:42.362Z,2.20
2023-05-07T07:26:10.872Z,1.40
2023-05-07T07:28:45.626Z,4.90
2023-05-07T07:31:15.565Z,2.70
2023-05-07T07:33:45.188Z,1.90
2023-05-07T07:36:16.435Z,2.60
2023-05-07T07:38:45.019Z,2.00
2023-05-07T07:41:13.599Z,4.20
2023-05-07T07:43:42.167Z,2.40
2023-05-07T07:46:10.740Z,1.80
2023-05-07T07:48:39.256Z,2.50
2023-05-07T07:51:08.551Z,3.60
2023-05-07T07:53:41.525Z,3.60
2023-05-07T07:56:12.912Z,3.20
2023-05-07T07:58:41.571Z,3.60
2023-05-07T08:01:12.792Z,2.40
2023-05-07T08:03:42.452Z,2.20
2023-05-07T08:06:11.423Z,3.50
2023-05-07T08:08:41.811Z,4.10
2023-05-07T08:11:12.799Z,3.30
2023-05-07T08:13:44.851Z,1.00
2023-05-07T08:16:13.660Z,5.80
2023-05-07T08:18:42.260Z,2.40
2023-05-07T08:21:13.278Z,3.30
2023-05-07T08:23:41.754Z,2.80
2023-05-07T08:26:10.832Z,3.00
2023-05-07T08:28:40.049Z,2.70
2023-05-07T08:31:09.055Z,3.50
2023-05-07T08:33:38.709Z,2.60
2023-05-07T08:36:08.056Z,3.10
2023-05-07T08:38:36.650Z,6.60
2023-05-07T08:41:07.944Z,3.20
2023-05-07T08:43:38.035Z,3.30
2023-05-07T08:46:10.201Z,2.20
2023-05-07T08:48:41.894Z,3.10
2023-05-07T08:51:17.291Z,3.00
2023-05-07T08:53:46.689Z,2.50
2023-05-07T08:56:15.927Z,2.00
2023-05-07T08:58:46.827Z,2.40
2023-05-07T09:01:17.388Z,3.60
2023-05-07T09:03:47.590Z,5.20
2023-05-07T09:06:17.056Z,3.10
2023-05-07T09:08:54.755Z,2.50
2023-05-07T09:11:23.737Z,2.20
2023-05-07T09:13:55.986Z,2.30
2023-05-07T09:16:25.602Z,3.80
2023-05-07T09:18:55.377Z,2.30
2023-05-07T09:21:24.215Z,3.20
2023-05-07T09:23:57.191Z,5.70
2023-05-07T09:26:28.651Z,2.10
2023-05-07T09:28:58.670Z,2.50
2023-05-07T09:31:28.505Z,5.10
2023-05-07T09:34:01.208Z,2.30
2023-05-07T09:36:35.371Z,3.60
2023-05-07T09:39:04.511Z,3.10
2023-05-07T09:41:36.661Z,3.40
2023-05-07T09:44:06.641Z,3.80
2023-05-07T09:46:38.951Z,2.40
2023-05-07T09:51:44.247Z,1.80
2023-05-07T09:54:13.608Z,2.10
2023-05-07T09:56:44.876Z,3.90
2023-05-07T09:59:16.193Z,2.30
2023-05-07T10:01:49.212Z,1.80
2023-05-07T10:04:19.265Z,2.40
2023-05-07T10:06:48.625Z,4.10
2023-05-07T10:09:18.627Z,2.80
2023-05-07T10:11:47.484Z,1.90
2023-05-07T10:14:16.826Z,6.10
2023-05-07T10:16:52.169Z,2.50
2023-05-07T10:19:20.962Z,1.90
2023-05-07T10:21:57.359Z,3.70
2023-05-07T10:24:30.230Z,4.10
2023-05-07T10:27:05.521Z,1.70
2023-05-07T10:29:39.939Z,3.00
2023-05-07T10:32:23.012Z,2.80
2023-05-07T10:34:55.171Z,1.70
2023-05-07T10:37:24.285Z,1.40
2023-05-07T10:39:53.089Z,2.40
2023-05-07T10:42:21.581Z,2.50
2023-05-07T10:44:50.438Z,6.20
2023-05-07T10:47:19.256Z,11.40
2023-05-07T10:50:25.854Z,4.40
2023-05-07T10:53:28.894Z,2.00
2023-05-07T10:56:29.980Z,3.30
2023-05-07T10:59:43.993Z,3.80
2023-05-07T11:02:14.736Z,2.70
2023-05-07T11:04:45.616Z,2.00
2023-05-07T11:07:29.097Z,2.90
2023-05-07T11:10:01.513Z,4.40
2023-05-07T11:13:04.614Z,2.60
2023-05-07T11:15:43.713Z,2.00
2023-05-07T11:18:13.824Z,2.40
2023-05-07T11:20:56.785Z,5.20
2023-05-07T11:24:10.559Z,3.90
2023-05-07T11:26:50.413Z,2.00
2023-05-07T11:29:22.859Z,5.30
2023-05-07T11:31:53.155Z,1.90
2023-05-07T11:34:26.163Z,2.20
2023-05-07T11:36:58.957Z,2.10
2023-05-07T11:39:38.757Z,1.30
2023-05-07T11:42:08.560Z,5.20
2023-05-07T11:44:46.495Z,2.00
2023-05-07T11:47:22.945Z,3.30
2023-05-07T11:49:54.687Z,5.00
2023-05-07T11:52:25.141Z,2.30
2023-05-07T11:54:57.919Z,3.00
2023-05-07T11:57:28.636Z,2.40
2023-05-07T11:59:57.836Z,1.50
2023-05-07T12:02:27.209Z,2.50
2023-05-07T12:04:58.915Z,1.80
2023-05-07T12:07:28.911Z,4.20
2023-05-07T12:09:59.149Z,5.70
2023-05-07T12:12:28.246Z,1.60
2023-05-07T12:15:00.986Z,2.50
2023-05-07T12:17:30.155Z,2.90
2023-05-07T12:19:59.748Z,1.80
2023-05-07T12:22:29.758Z,3.60
2023-05-07T12:24:59.908Z,1.80
2023-05-07T12:27:28.526Z,4.10
2023-05-07T12:30:01.042Z,5.20
2023-05-07T12:32:36.886Z,6.30
2023-05-07T12:35:08.887Z,1.40
2023-05-07T12:37:40.992Z,2.20
2023-05-07T12:40:13.331Z,3.30
2023-05-07T12:42:45.478Z,2.50
2023-05-07T12:45:18.017Z,1.90
2023-05-07T12:47:49.475Z,3.30
2023-05-07T12:50:18.393Z,1.80
2023-05-07T12:52:48.543Z,1.50
2023-05-07T12:55:18.152Z,2.90
2023-05-07T12:57:49.811Z,2.20
2023-05-07T13:00:19.183Z,5.50
2023-05-07T13:02:47.894Z,1.90
2023-05-07T13:05:19.210Z,2.00
2023-05-07T13:07:55.371Z,1.90
2023-05-07T13:10:26.319Z,2.60
2023-05-07T13:12:58.204Z,3.30
2023-05-07T13:15:27.683Z,2.20
2023-05-07T13:17:57.081Z,1.90
2023-05-07T13:20:26.787Z,1.70
2023-05-07T13:22:58.263Z,2.50
2023-05-07T13:25:28.185Z,3.60
2023-05-07T13:28:09.547Z,1.70
2023-05-07T13:30:39.690Z,4.30
2023-05-07T13:33:13.421Z,1.70
2023-05-07T13:35:42.538Z,3.20
2023-05-07T13:38:12.711Z,1.50
2023-05-07T13:40:41.164Z,1.50
2023-05-07T13:43:11.208Z,1.80
2023-05-07T13:45:40.109Z,4.00
2023-05-07T13:48:12.043Z,3.20
2023-05-07T13:50:40.698Z,2.20
2023-05-07T13:53:11.719Z,3.10
2023-05-07T13:55:41.045Z,1.40
2023-05-07T13:58:10.279Z,1.20
2023-05-07T14:00:39.220Z,1.90
2023-05-07T14:03:09.850Z,3.80
2023-05-07T14:05:39.159Z,2.10
2023-05-07T14:08:11.282Z,1.30
2023-05-07T14:10:42.214Z,1.90
2023-05-07T14:13:11.429Z,3.70
2023-05-07T14:15:40.748Z,3.20
2023-05-07T14:18:11.907Z,4.00
2023-05-07T14:20:40.742Z,1.60
2023-05-07T14:23:09.520Z,1.50
2023-05-07T14:25:39.316Z,2.30
2023-05-07T14:28:09.077Z,3.70
2023-05-07T14:30:39.113Z,1.80
2023-05-07T14:33:08.663Z,5.80
2023-05-07T14:35:37.788Z,1.20
2023-05-07T14:38:09.845Z,2.50
2023-05-07T14:40:40.225Z,2.20
2023-05-07T14:43:09.445Z,1.40
2023-05-07T14:45:39.314Z,1.70
2023-05-07T14:48:10.102Z,1.90
2023-05-07T14:50:40.544Z,2.20
2023-05-07T14:53:09.415Z,2.40
2023-05-07T14:55:38.777Z,1.50
2023-05-07T14:58:07.780Z,2.50
2023-05-07T15:00:36.852Z,2.90
2023-05-07T15:03:08.479Z,3.00
2023-05-07T15:05:38.839Z,1.70
2023-05-07T15:08:08.633Z,2.50
2023-05-07T15:10:41.529Z,2.80
2023-05-07T15:13:15.617Z,3.00
2023-05-07T15:15:45.173Z,3.20
2023-05-07T15:18:13.777Z,4.80
2023-05-07T15:20:43.068Z,2.70
2023-05-07T15:23:14.564Z,4.60
2023-05-07T15:25:44.759Z,5.10
2023-05-07T15:28:13.774Z,1.30
2023-05-07T15:30:43.161Z,1.40
2023-05-07T15:33:12.468Z,4.60
2023-05-07T15:35:43.184Z,3.10
2023-05-07T15:38:14.230Z,2.80
2023-05-07T15:40:43.665Z,3.30
2023-05-07T15:43:14.174Z,2.00
2023-05-07T15:45:44.813Z,2.00
2023-05-07T15:48:13.654Z,1.80
2023-05-07T15:50:43.815Z,10.20
2023-05-07T15:53:13.548Z,2.60
2023-05-07T15:55:44.068Z,1.50
2023-05-07T15:58:12.694Z,1.50
2023-05-07T16:00:41.948Z,3.00
2023-05-07T16:03:10.719Z,2.20
2023-05-07T16:05:39.639Z,2.40
2023-05-07T16:08:09.839Z,5.30
2023-05-07T16:10:38.654Z,1.20
2023-05-07T16:13:09.731Z,3.60
2023-05-07T16:15:41.639Z,2.60
2023-05-07T16:18:10.475Z,1.50
2023-05-07T16:20:39.798Z,5.90
2023-05-07T16:23:09.458Z,3.40
2023-05-07T16:25:38.356Z,3.10
2023-05-07T16:28:08.989Z,1.50
2023-05-07T16:30:38.762Z,3.60
2023-05-07T16:33:10.465Z,3.90
2023-05-07T16:35:39.865Z,2.80
2023-05-07T16:38:10.635Z,3.90
2023-05-07T16:40:45.865Z,3.50
2023-05-07T16:43:15.492Z,4.60
2023-05-07T16:45:44.272Z,2.00
2023-05-07T16:48:13.874Z,5.60
2023-05-07T16:50:43.891Z,4.50
2023-05-07T16:53:12.959Z,2.10
2023-05-07T16:55:41.768Z,2.90
2023-05-07T16:58:11.834Z,3.00
2023-05-07T17:03:12.371Z,3.60
2023-05-07T17:05:41.400Z,3.60
2023-05-07T17:08:12.836Z,3.30
2023-05-07T17:10:42.119Z,2.90
2023-05-07T17:13:13.489Z,4.00
2023-05-07T17:15:44.892Z,4.50
2023-05-07T17:18:13.917Z,3.50
2023-05-07T17:20:44.286Z,10.80
2023-05-07T17:23:13.567Z,3.20
2023-05-07T17:25:44.959Z,3.40
2023-05-07T17:28:16.357Z,3.70
2023-05-07T17:30:47.678Z,4.40
2023-05-07T17:33:22.049Z,6.10
2023-05-07T17:35:52.755Z,3.90
2023-05-07T17:38:23.825Z,5.90
2023-05-07T17:40:56.433Z,3.10
2023-05-07T17:43:25.945Z,4.70
2023-05-07T17:45:54.788Z,5.50
2023-05-07T17:48:28.080Z,3.60
2023-05-07T17:51:03.394Z,5.60
2023-05-07T17:53:32.440Z,6.00
2023-05-07T17:56:03.459Z,4.00
2023-05-07T17:58:46.851Z,2.90
2023-05-07T18:01:24.191Z,2.80
2023-05-07T18:03:53.671Z,4.70
2023-05-07T18:06:27.174Z,4.50
2023-05-07T18:08:56.542Z,5.60
2023-05-07T18:11:24.959Z,3.70
2023-05-07T18:13:53.379Z,4.70
2023-05-07T18:16:22.320Z,4.00
2023-05-07T18:18:51.790Z,7.30
2023-05-07T18:21:20.705Z,7.30
2023-05-07T18:23:51.133Z,5.90
2023-05-07T18:26:20.975Z,3.90
2023-05-07T18:28:50.986Z,4.00
2023-05-07T18:31:21.200Z,5.60
2023-05-07T18:33:52.522Z,4.30
2023-05-07T18:36:21.250Z,4.20
2023-05-07T18:38:49.901Z,4.60
2023-05-07T18:41:18.263Z,4.10
2023-05-07T18:43:47.587Z,3.10
2023-05-07T18:46:16.252Z,5.40
2023-05-07T18:48:44.824Z,7.60
2023-05-07T18:51:13.440Z,4.70
2023-05-07T18:53:42.195Z,5.20
2023-05-07T18:56:10.930Z,3.00
2023-05-07T18:58:39.390Z,5.00
2023-05-07T19:01:08.144Z,5.10
2023-05-07T19:03:37.406Z,6.20
2023-05-07T19:06:06.453Z,6.80
2023-05-07T19:08:34.995Z,6.30
2023-05-07T19:11:03.966Z,10.30
2023-05-07T19:13:32.755Z,3.40
2023-05-07T19:16:01.244Z,6.40
2023-05-07T19:18:31.251Z,4.90
2023-05-07T19:20:59.764Z,7.40
2023-05-07T19:23:28.261Z,6.10
2023-05-07T19:25:56.694Z,6.40
2023-05-07T19:28:29.686Z,12.00
2023-05-07T19:30:59.189Z,8.90
2023-05-07T19:33:29.459Z,14.80
2023-05-07T19:36:00.154Z,7.10
2023-05-07T19:38:30.164Z,9.80
2023-05-07T19:41:00.360Z,9.20
2023-05-07T19:43:30.404Z,8.80
2023-05-07T19:45:59.013Z,10.60
2023-05-07T19:48:29.656Z,8.90
2023-05-07T19:51:01.466Z,7.70
2023-05-07T19:53:35.822Z,10.20
2023-05-07T19:58:35.847Z,7.50
2023-05-07T20:01:09.253Z,10.50
2023-05-07T20:03:40.190Z,13.90
2023-05-07T20:06:11.232Z,10.20
2023-05-07T20:08:39.867Z,17.60
2023-05-07T20:11:10.912Z,11.00
2023-05-07T20:13:39.635Z,15.50
2023-05-07T20:16:09.788Z,10.20
2023-05-07T20:18:44.011Z,15.20
2023-05-07T20:21:18.524Z,10.00
2023-05-07T20:23:48.697Z,9.20
2023-05-07T20:26:24.811Z,10.90
2023-05-07T20:28:56.864Z,6.80
2023-05-07T20:31:25.512Z,19.70
2023-05-07T20:33:54.141Z,9.80
2023-05-07T20:36:26.148Z,10.70
2023-05-07T20:38:56.041Z,13.50
2023-05-07T20:41:25.853Z,14.50
2023-05-07T20:44:05.121Z,12.30
2023-05-07T20:46:36.127Z,10.50
2023-05-07T20:49:05.571Z,11.00
2023-05-07T20:51:34.780Z,9.80
2023-05-07T20:54:03.589Z,13.40
2023-05-07T20:56:32.735Z,9.00
2023-05-07T20:59:05.923Z,10.10
2023-05-07T21:01:38.757Z,14.70
2023-05-07T21:04:07.969Z,5.20
2023-05-07T21:06:39.808Z,5.50
2023-05-07T21:09:09.540Z,7.90
2023-05-07T21:11:38.913Z,11.10
2023-05-07T21:14:11.902Z,15.00
2023-05-07T21:16:47.538Z,13.60
2023-05-07T21:19:16.736Z,11.90
2023-05-07T21:21:47.824Z,17.10
2023-05-07T21:24:18.006Z,9.70
2023-05-07T21:26:49.398Z,12.40
2023-05-07T21:29:21.579Z,9.00
2023-05-07T21:31:51.258Z,16.80
2023-05-07T21:34:20.799Z,14.50
2023-05-07T21:36:53.292Z,16.90
2023-05-07T21:39:22.090Z,15.00
2023-05-07T21:41:53.983Z,10.00
2023-05-07T21:44:22.737Z,14.40
2023-05-07T21:46:51.333Z,16.20
2023-05-07T21:49:19.928Z,17.60
2023-05-07T21:51:48.338Z,20.10
2023-05-07T21:54:18.025Z,16.70
2023-05-07T21:56:48.776Z,23.40
2023-05-07T21:59:20.743Z,15.30
2023-05-07T22:01:49.997Z,17.20
2023-05-07T22:04:19.808Z,17.40
2023-05-07T22:06:48.352Z,16.60
2023-05-07T22:09:16.973Z,15.30
2023-05-07T22:11:46.489Z,18.40
2023-05-07T22:14:18.865Z,15.20
2023-05-07T22:16:48.571Z,13.10
2023-05-07T22:19:18.548Z,12.50
2023-05-07T22:21:47.205Z,12.60
2023-05-07T22:24:16.067Z,19.10
2023-05-07T22:26:44.999Z,13.60
2023-05-07T22:29:14.047Z,16.00
2023-05-07T22:31:42.691Z,11.40
2023-05-07T22:34:11.240Z,11.30
2023-05-07T22:36:39.861Z,17.90
2023-05-07T22:39:09.491Z,14.90
2023-05-07T22:41:38.189Z,13.00
2023-05-07T22:44:06.825Z,13.20
2023-05-07T22:46:35.340Z,11.10
2023-05-07T22:49:04.704Z,17.30
2023-05-07T22:51:33.320Z,14.10
2023-05-07T22:54:02.925Z,14.60
2023-05-07T22:56:32.062Z,12.60
2023-05-07T22:59:04.452Z,10.90
2023-05-07T23:01:33.478Z,17.10
2023-05-07T23:04:02.321Z,12.80
2023-05-07T23:06:30.784Z,16.20
2023-05-07T23:09:00.772Z,13.10
2023-05-07T23:11:29.479Z,17.30
2023-05-07T23:13:57.942Z,15.60
2023-05-07T23:16:28.318Z,12.40
2023-05-07T23:18:57.252Z,14.90
2023-05-07T23:21:27.398Z,15.00
2023-05-07T23:23:56.266Z,16.70
2023-05-07T23:26:27.535Z,10.80
2023-05-07T23:28:56.031Z,12.40
2023-05-07T23:31:24.664Z,11.50
2023-05-07T23:33:53.061Z,10.10
2023-05-07T23:36:21.798Z,9.20
2023-05-07T23:38:50.472Z,13.90
2023-05-07T23:41:19.001Z,12.90
2023-05-07T23:43:48.661Z,16.00
2023-05-07T23:46:17.495Z,13.00
2023-05-07T23:48:46.360Z,14.90
2023-05-07T23:51:16.021Z,12.70
2023-05-07T23:53:44.425Z,15.30
2023-05-07T23:56:12.822Z,12.30
2023-05-07T23:58:41.655Z,14.40
